In Rescue
 
Open Full Screen Window  High Contrast Mode
Wind Gusting 19 knots
15
May 13, 2021 10:15 AM CDT
Weather Information
Wind Direction
  190 °
Wind Speed
  15 kt (17 mph)
Wind Gust
  19 kt (22 mph)
Altimeter
30.30 in
Visibility
10 SM
Temperature
17° C
63° F
Dewpoint
00° C
32° F
Humidity
32%
1hr Rain Fall
00.00 in.
24hr Rain Fall
00.00 in.
Sky Condition
Clear
VFR

METAR KD39 131515Z AUTO 19015G19KT 10SM CLR 17/00 A3030 RMK AO2 T01740001

FAA Disclaimer: The data displayed is for advisory purposes only and is not to be used for flight planning or operations.